Sioux Falls, SD (57106)

5:21 PM CST on December 08, 2016 (GMT -0600)
Dunham Park | | Change Station

Elev 1424 ft 43.53 °N, 96.80 °W | Updated 7 seconds ago

Clear
Clear
15.3 °F
Feels Like 15 °F
N
2.0
Wind Variable Wind from NW
Gusts 6.0 mph

Today
High -- | Low -- °F
--% Chance of Precip.
Yesterday
High -- | Low -- °F
Precip. -- in
Pressure 30.67 in
Visibility 10.0 miles
Clouds Few 4800 ft
Windchill 15 °F
Dew Point 8 °F
Humidity 74%
Rainfall 0.00 in
Snow Depth Not available.
7:47 AM 4:50 PM
Waxing Gibbous, 68% visible
METAR KFSD 082256Z 31012KT 10SM FEW048 M09/M14 A3057 RMK AO2 SLP385 T10941139
Pressure 30.67 in
Visibility 10.0 miles
Clouds Few 4800 ft
Windchill 15 °F
Dew Point 8 °F
Humidity 74%
Rainfall 0.00 in
Snow Depth Not available.
7:47 AM 4:50 PM
Waxing Gibbous, 68% visible
METAR KFSD 082256Z 31012KT 10SM FEW048 M09/M14 A3057 RMK AO2 SLP385 T10941139

10-Day Weather Forecast

Almanac

Astronomy

Dec. 08, 2016 Rise Set
Actual Time
Civil Twilight
Nautical Twilight
Astronomical Twilight
Moon
Length of Visible Light
Length of Day
Tomorrow will be .
, % of the Moon is Illuminated

Today's Extremes

State Highs State Lows

Community

WunderPhotos

Upload Photos

1,956,277 photos uploaded!

WunderBlog® & News

Nearby

Air Quality

  Air Quality AQ Index Pollutant
Not available.

Snow Depth

Station Depth Elevation

Earthquake Activity

City Distance Mag. Time & Date
Minimum magnitude displayed is 2.5.

Coastal Water Temperatures

Place Temperature

Stations

Nearby Weather Stations

Station Location Temp. Windchill Dew Point Humidity Wind Precip. Elev Updated Type
                   

Watches & Warnings

There are currently no watches in effect.